Detall de PIREP

Printer-friendly versionPDF version

[2012/12/06 08:47:00]
Flight IATA:CT3416
Pilot Number:012
Company ICAO:CAT
Aircraft Type:B763/F
PAX:203
Departing Airport: LEBL
Destination Airport: LATI
Alternate Airport:LYPG
Online: VATSIM
Route:VERSO/M080F360 UM24 LAPIT UN725 ORKUM/M080F370 UM603 BRD UP92 PAPIZ P92 DIRES
Flight Level:F370
No Slew and time accel
No pause
Crash detect
Detect pilot in Cockpit between each 30 and 45 minutes
08:47 Zero fuel Weight: 255127 Lbs, Fuel Weight: 36600 Lbs
08:47 VATSIM:LEBL 060830Z 33011KT 300V360 9999 FEW030 07/02 Q1018 NOSIG
08:47 VATSIM:LATI 060820Z 36004KT 320V040 9999 -RA FEW020 SCT030 OVC050 06/04 Q1005 NOSIG
08:47 VOICE CATALONIAN
09:03 Parking Brakes off
09:10 Take-off
09:10 Take off Weight: 289428 Lbs
09:10 Wind: 331º @ 011 Knots Heading: 247º
09:10 POS N41º 17´ 14´´ E002º 05´ 21´´
09:10 Gear Up: 165 Knots
09:10 Flaps:2 at 165 Knots
09:10 Flaps:1 at 181 Knots
09:10 Flaps:0 at 206 Knots
09:25 Wind:301º@070 Knots Heading: 108º Ground Speed: 528 Knots Altitude 36145 ft
09:40 Wind:304º@075 Knots Heading: 093º Ground Speed: 527 Knots Altitude 36046 ft
09:47 TOC
09:47 Fuel Weight: 24418 Lb
09:55 Wind:304º@079 Knots Heading: 079º Ground Speed: 522 Knots Altitude 36925 ft
10:10 Wind:297º@067 Knots Heading: 081º Ground Speed: 522 Knots Altitude 36820 ft
10:25 Wind:292º@056 Knots Heading: 085º Ground Speed: 518 Knots Altitude 36794 ft
10:38 TOD
10:38 Fuel Weight: 16837 Lb
10:40 Wind:282º@051 Knots Heading: 075º Ground Speed: 528 Knots Altitude 29340 ft
10:48 Flaps:1 at 240 Knots
10:52 Flaps:2 at 219 Knots
10:55 Wind:317º@002 Knots Heading: 359º Ground Speed: 209 Knots Altitude 3792 ft
10:55 Flaps:3 at 190 Knots
10:56 Flaps:4 at 166 Knots
10:56 Flaps:5 at 144 Knots
10:57 Gear Down: 142 Knots
10:57 Flaps:6 at 134 Knots
11:00TouchDown:Rate -299 ft/min Speed: 121 Knots
11:00 VATSIM:LATI 061050Z 12007KT 9999 -RA FEW023CB SCT035 OVC050 07/04 Q1004 NOSIG
11:00 Land
11:00 Wind:358º@002 Knots
11:00 Heading: 353º
11:00 Flight Duration: 01:50
11:00 Landing Weight: 269834 Lbs
11:00 POS N41º 24´ 45´´ E019º 43´ 15´´
11:02 Parking brakes on
11:02 Block to Block Duration: 01:59
11:02 Final Fuel: 14325 Lbls
11:02 Spent Fuel: 22275 Lbls
11:02 Flight Length: 864 NM
11:02 TOD Land Length: 116 NM

Exportar CSV

Powered by Drupal - Modified by Danger4k